Mostly Cloudy Current Weather (METAR) For Bournemouth Airport

All times on the weather descriptions are local

Observed at 14:20 - (32 mins ago)

Mostly Cloudy

20°C

Mostly Cloudy
Clouds: Broken Clouds at 2,300ft, Broken Clouds at 4,400ft
Wind: 360° at 08 knots
Visibility: Greater than 10km
QNH: 1016
Dew Point: 15°C
Runway in Use: Likely Runway 08

Sunrise Today: 06:16
Sunset Today: 19:58

Forecast Weather (TAF) For Bournemouth Airport

Issued at 01:00 - (10 hrs 7 mins ago)


Runway in Use: Unable to determine, wind is clam

Forecast valid until 01:00 on Monday

METAR/TAF RAW METAR / TAF

EGHH 301320Z 36008KT 9999 BKN023 BKN044 20/15 Q1016

Weather Widget

Put weather from any of our airports on your website with our weather widget.

Find Another Search

Airport Search


Please Wait Please Wait - Loading
Close
Close

Login

Username:

Password:

Remember Me:

Remember me on this computer

Forgotten your password? Get a reset password sent to your registered e-mail address

Close

User Private Message

Subject:

Message: